This is the latest recevied weather packets stored in our database for station/object SP9EPI-13. If no packets are shown the sender has not sent any weather packets the latest 10 day(s).
| Time | Temp. | Humidity | Pressure | Rain* | Wind** | Luminosity | Snow |
|---|---|---|---|---|---|---|---|
| 1777938601 | 7.22° C | 99% | 1008.8 hPa | - | - | - | - |
| 1777938000 | 7.22° C | 99% | 1008.8 hPa | - | - | - | - |
| 1777937401 | 7.22° C | 99% | 1008.8 hPa | - | - | - | - |
| 1777936801 | 7.22° C | 99% | 1008.8 hPa | - | - | - | - |
| 1777936201 | 7.22° C | 99% | 1009.1 hPa | - | - | - | - |
| 1777935600 | 7.78° C | 99% | 1009.1 hPa | - | - | - | - |
| 1777935000 | 8.89° C | 99% | 1009.1 hPa | - | - | - | - |
| 1777934402 | 8.89° C | 99% | 1009.1 hPa | - | - | - | - |
| 1777933801 | 8.89° C | 99% | 1009.1 hPa | - | - | - | - |
| 1777933204 | 10° C | 82% | 1009.1 hPa | - | - | - | - |
| 1777932601 | 10° C | 78% | 1009.1 hPa | - | - | - | - |
| 1777932000 | 0° C | 100% | 0 hPa | - | - | - | - |
| 1777931401 | 10° C | 85% | 1009.1 hPa | - | - | - | - |
| 1777930801 | 11.11° C | 81% | 1009.1 hPa | - | - | - | - |
| 1777930202 | 0° C | 100% | 0 hPa | - | - | - | - |
| 1777929601 | 11.11° C | 69% | 1009.1 hPa | - | - | - | - |
| 1777929000 | 11.11° C | 75% | 1009.1 hPa | - | - | - | - |
| 1777928400 | 11.11° C | 70% | 1008.8 hPa | - | - | - | - |
| 1777927801 | 11.11° C | 67% | 1008.8 hPa | - | - | - | - |
| 1777927200 | 12.22° C | 69% | 1008.8 hPa | - | - | - | - |
| 1777926601 | 12.22° C | 72% | 1008.8 hPa | - | - | - | - |
| 1777926001 | 12.78° C | 71% | 1008.8 hPa | - | - | - | - |
| 1777925401 | 11.11° C | 72% | 1008.8 hPa | - | - | - | - |
| 1777924801 | 11.11° C | 76% | 1008.8 hPa | - | - | - | - |
| 1777924203 | 12.22° C | 75% | 1008.8 hPa | - | - | - | - |
* Rain since midnight (hover to see other rain measurements)
** Current wind speed in m/s (hover to see current wind gust speed)